sensor_id;sensor_type;location;lat;lon;timestamp;temperature;humidity
21662;DHT22;10992;48.170;8.596;2023-04-03T00:00:59;1.40;99.90
21662;DHT22;10992;48.170;8.596;2023-04-03T00:03:26;1.30;99.90
21662;DHT22;10992;48.170;8.596;2023-04-03T00:05:53;1.30;99.90
21662;DHT22;10992;48.170;8.596;2023-04-03T00:08:21;1.20;99.90
21662;DHT22;10992;48.170;8.596;2023-04-03T00:10:48;1.20;99.90
21662;DHT22;10992;48.170;8.596;2023-04-03T00:13:15;1.20;99.90
21662;DHT22;10992;48.170;8.596;2023-04-03T00:15:42;1.20;99.90
21662;DHT22;10992;48.170;8.596;2023-04-03T00:18:09;1.10;99.90
21662;DHT22;10992;48.170;8.596;2023-04-03T00:20:36;1.10;99.90
21662;DHT22;10992;48.170;8.596;2023-04-03T00:23:04;1.00;99.90
21662;DHT22;10992;48.170;8.596;2023-04-03T00:25:31;1.00;99.90
21662;DHT22;10992;48.170;8.596;2023-04-03T00:27:58;1.00;99.90
21662;DHT22;10992;48.170;8.596;2023-04-03T00:30:25;1.00;99.90
21662;DHT22;10992;48.170;8.596;2023-04-03T00:32:53;1.00;99.90
21662;DHT22;10992;48.170;8.596;2023-04-03T00:35:21;1.00;99.90
21662;DHT22;10992;48.170;8.596;2023-04-03T00:37:51;1.00;99.90
21662;DHT22;10992;48.170;8.596;2023-04-03T00:40:19;1.00;99.90
21662;DHT22;10992;48.170;8.596;2023-04-03T00:42:48;0.90;99.90
21662;DHT22;10992;48.170;8.596;2023-04-03T00:48:00;0.90;99.90
21662;DHT22;10992;48.170;8.596;2023-04-03T00:50:28;1.00;99.90
21662;DHT22;10992;48.170;8.596;2023-04-03T00:52:56;0.90;99.90
21662;DHT22;10992;48.170;8.596;2023-04-03T00:55:24;0.90;99.90
21662;DHT22;10992;48.170;8.596;2023-04-03T00:57:52;0.90;99.90
21662;DHT22;10992;48.170;8.596;2023-04-03T01:00:20;0.90;99.90
21662;DHT22;10992;48.170;8.596;2023-04-03T01:02:50;0.90;99.90
21662;DHT22;10992;48.170;8.596;2023-04-03T01:05:19;0.90;99.90
21662;DHT22;10992;48.170;8.596;2023-04-03T01:07:49;0.90;99.90
21662;DHT22;10992;48.170;8.596;2023-04-03T01:10:18;0.90;99.90
21662;DHT22;10992;48.170;8.596;2023-04-03T01:12:49;0.90;99.90
21662;DHT22;10992;48.170;8.596;2023-04-03T01:15:26;0.90;99.90
21662;DHT22;10992;48.170;8.596;2023-04-03T01:17:58;0.80;99.90
21662;DHT22;10992;48.170;8.596;2023-04-03T01:28:11;0.80;99.90
21662;DHT22;10992;48.170;8.596;2023-04-03T01:30:50;0.80;99.90
21662;DHT22;10992;48.170;8.596;2023-04-03T01:33:17;0.80;99.90
21662;DHT22;10992;48.170;8.596;2023-04-03T01:35:46;0.80;99.90
21662;DHT22;10992;48.170;8.596;2023-04-03T01:38:13;0.80;99.90
21662;DHT22;10992;48.170;8.596;2023-04-03T01:40:40;0.80;99.90
21662;DHT22;10992;48.170;8.596;2023-04-03T01:43:07;0.80;99.90
21662;DHT22;10992;48.170;8.596;2023-04-03T01:45:34;0.80;99.90
21662;DHT22;10992;48.170;8.596;2023-04-03T01:48:01;0.80;99.90
21662;DHT22;10992;48.170;8.596;2023-04-03T01:50:29;0.80;99.90
21662;DHT22;10992;48.170;8.596;2023-04-03T01:52:56;0.80;99.90
21662;DHT22;10992;48.170;8.596;2023-04-03T01:55:22;0.80;99.90
21662;DHT22;10992;48.170;8.596;2023-04-03T01:57:49;0.80;99.90
21662;DHT22;10992;48.170;8.596;2023-04-03T02:00:17;0.80;99.90
21662;DHT22;10992;48.170;8.596;2023-04-03T02:02:44;0.80;99.90
21662;DHT22;10992;48.170;8.596;2023-04-03T02:05:11;0.80;99.90
21662;DHT22;10992;48.170;8.596;2023-04-03T02:07:38;0.70;99.90
21662;DHT22;10992;48.170;8.596;2023-04-03T02:10:05;0.80;99.90
21662;DHT22;10992;48.170;8.596;2023-04-03T02:12:32;0.70;99.90
21662;DHT22;10992;48.170;8.596;2023-04-03T02:14:59;0.70;99.90
21662;DHT22;10992;48.170;8.596;2023-04-03T02:17:27;0.70;99.90
21662;DHT22;10992;48.170;8.596;2023-04-03T02:19:54;0.70;99.90
21662;DHT22;10992;48.170;8.596;2023-04-03T02:22:21;0.60;99.90
21662;DHT22;10992;48.170;8.596;2023-04-03T02:24:48;0.60;99.90
21662;DHT22;10992;48.170;8.596;2023-04-03T02:27:15;0.60;99.90
21662;DHT22;10992;48.170;8.596;2023-04-03T02:29:42;0.60;99.90
21662;DHT22;10992;48.170;8.596;2023-04-03T02:32:09;0.50;99.90
21662;DHT22;10992;48.170;8.596;2023-04-03T02:37:05;0.50;99.90
21662;DHT22;10992;48.170;8.596;2023-04-03T02:39:33;0.50;99.90
21662;DHT22;10992;48.170;8.596;2023-04-03T02:42:00;0.50;99.90
21662;DHT22;10992;48.170;8.596;2023-04-03T02:44:28;0.40;99.90
21662;DHT22;10992;48.170;8.596;2023-04-03T02:46:55;0.40;99.90
21662;DHT22;10992;48.170;8.596;2023-04-03T02:49:22;0.40;99.90
21662;DHT22;10992;48.170;8.596;2023-04-03T02:51:49;0.40;99.90
21662;DHT22;10992;48.170;8.596;2023-04-03T02:54:17;0.40;99.90
21662;DHT22;10992;48.170;8.596;2023-04-03T02:56:49;0.40;99.90
21662;DHT22;10992;48.170;8.596;2023-04-03T02:59:16;0.30;99.90
21662;DHT22;10992;48.170;8.596;2023-04-03T03:01:44;0.30;99.90
21662;DHT22;10992;48.170;8.596;2023-04-03T03:04:11;0.30;99.90
21662;DHT22;10992;48.170;8.596;2023-04-03T03:06:37;0.30;99.90
21662;DHT22;10992;48.170;8.596;2023-04-03T03:09:04;0.40;99.90
21662;DHT22;10992;48.170;8.596;2023-04-03T03:11:32;0.40;99.90
21662;DHT22;10992;48.170;8.596;2023-04-03T03:13:59;0.40;99.90
21662;DHT22;10992;48.170;8.596;2023-04-03T03:16:26;0.30;99.90
21662;DHT22;10992;48.170;8.596;2023-04-03T03:18:53;0.30;99.90
21662;DHT22;10992;48.170;8.596;2023-04-03T03:21:20;0.30;99.90
21662;DHT22;10992;48.170;8.596;2023-04-03T03:23:47;0.40;99.90
21662;DHT22;10992;48.170;8.596;2023-04-03T03:26:14;0.40;99.90
21662;DHT22;10992;48.170;8.596;2023-04-03T03:28:41;0.30;99.90
21662;DHT22;10992;48.170;8.596;2023-04-03T03:31:08;0.40;99.90
21662;DHT22;10992;48.170;8.596;2023-04-03T03:33:38;0.40;99.90
21662;DHT22;10992;48.170;8.596;2023-04-03T03:36:05;0.40;99.90
21662;DHT22;10992;48.170;8.596;2023-04-03T03:38:32;0.40;99.90
21662;DHT22;10992;48.170;8.596;2023-04-03T03:41:00;0.40;99.90
21662;DHT22;10992;48.170;8.596;2023-04-03T03:43:29;0.40;99.90
21662;DHT22;10992;48.170;8.596;2023-04-03T03:45:56;0.50;99.90
21662;DHT22;10992;48.170;8.596;2023-04-03T03:48:24;0.50;99.90
21662;DHT22;10992;48.170;8.596;2023-04-03T03:50:51;0.50;99.90
21662;DHT22;10992;48.170;8.596;2023-04-03T03:53:23;0.50;99.90
21662;DHT22;10992;48.170;8.596;2023-04-03T03:55:53;0.50;99.90
21662;DHT22;10992;48.170;8.596;2023-04-03T03:58:22;0.50;99.90
21662;DHT22;10992;48.170;8.596;2023-04-03T04:00:49;0.50;99.90
21662;DHT22;10992;48.170;8.596;2023-04-03T04:03:16;0.50;99.90
21662;DHT22;10992;48.170;8.596;2023-04-03T04:05:46;0.50;99.90
21662;DHT22;10992;48.170;8.596;2023-04-03T04:08:13;0.50;99.90
21662;DHT22;10992;48.170;8.596;2023-04-03T04:10:40;0.50;99.90
21662;DHT22;10992;48.170;8.596;2023-04-03T04:13:08;0.40;99.90
21662;DHT22;10992;48.170;8.596;2023-04-03T04:15:35;0.40;99.90
21662;DHT22;10992;48.170;8.596;2023-04-03T04:18:02;0.40;99.90
21662;DHT22;10992;48.170;8.596;2023-04-03T04:20:30;0.40;99.90
21662;DHT22;10992;48.170;8.596;2023-04-03T04:22:57;0.40;99.90
21662;DHT22;10992;48.170;8.596;2023-04-03T04:25:25;0.40;99.90
21662;DHT22;10992;48.170;8.596;2023-04-03T04:27:52;0.40;99.90
21662;DHT22;10992;48.170;8.596;2023-04-03T04:30:19;0.40;99.90
21662;DHT22;10992;48.170;8.596;2023-04-03T04:32:48;0.50;99.90
21662;DHT22;10992;48.170;8.596;2023-04-03T04:35:16;0.50;99.90
21662;DHT22;10992;48.170;8.596;2023-04-03T04:37:46;0.50;99.90
21662;DHT22;10992;48.170;8.596;2023-04-03T04:40:13;0.50;99.90
21662;DHT22;10992;48.170;8.596;2023-04-03T04:42:40;0.50;99.90
21662;DHT22;10992;48.170;8.596;2023-04-03T04:45:08;0.50;99.90
21662;DHT22;10992;48.170;8.596;2023-04-03T04:47:39;0.50;99.90
21662;DHT22;10992;48.170;8.596;2023-04-03T04:50:08;0.40;99.90
21662;DHT22;10992;48.170;8.596;2023-04-03T04:52:35;0.40;99.90
21662;DHT22;10992;48.170;8.596;2023-04-03T04:55:02;0.50;99.90
21662;DHT22;10992;48.170;8.596;2023-04-03T04:57:30;0.50;99.90
21662;DHT22;10992;48.170;8.596;2023-04-03T04:59:58;0.50;99.90
21662;DHT22;10992;48.170;8.596;2023-04-03T05:02:25;0.50;99.90
21662;DHT22;10992;48.170;8.596;2023-04-03T05:04:53;0.50;99.90
21662;DHT22;10992;48.170;8.596;2023-04-03T05:07:25;0.50;99.90
21662;DHT22;10992;48.170;8.596;2023-04-03T05:09:52;0.40;99.90
21662;DHT22;10992;48.170;8.596;2023-04-03T05:12:20;0.50;99.90
21662;DHT22;10992;48.170;8.596;2023-04-03T05:14:52;0.50;99.90
21662;DHT22;10992;48.170;8.596;2023-04-03T05:17:20;0.50;99.90
21662;DHT22;10992;48.170;8.596;2023-04-03T05:19:50;0.40;99.90
21662;DHT22;10992;48.170;8.596;2023-04-03T05:22:19;0.40;99.90
21662;DHT22;10992;48.170;8.596;2023-04-03T05:24:47;0.40;99.90
21662;DHT22;10992;48.170;8.596;2023-04-03T05:27:14;0.50;99.90
21662;DHT22;10992;48.170;8.596;2023-04-03T05:29:45;0.50;99.90
21662;DHT22;10992;48.170;8.596;2023-04-03T05:32:16;0.50;99.90
21662;DHT22;10992;48.170;8.596;2023-04-03T05:34:47;0.50;99.90
21662;DHT22;10992;48.170;8.596;2023-04-03T05:37:14;0.50;99.90
21662;DHT22;10992;48.170;8.596;2023-04-03T05:39:42;0.50;99.90
21662;DHT22;10992;48.170;8.596;2023-04-03T05:42:11;0.50;99.90
21662;DHT22;10992;48.170;8.596;2023-04-03T05:44:38;0.40;99.90
21662;DHT22;10992;48.170;8.596;2023-04-03T05:47:05;0.40;99.90
21662;DHT22;10992;48.170;8.596;2023-04-03T05:49:33;0.40;99.90
21662;DHT22;10992;48.170;8.596;2023-04-03T05:52:01;0.40;99.90
21662;DHT22;10992;48.170;8.596;2023-04-03T05:54:30;0.40;99.90
21662;DHT22;10992;48.170;8.596;2023-04-03T05:57:14;0.40;99.90
21662;DHT22;10992;48.170;8.596;2023-04-03T05:59:43;0.40;99.90
21662;DHT22;10992;48.170;8.596;2023-04-03T06:02:13;0.40;99.90
21662;DHT22;10992;48.170;8.596;2023-04-03T06:04:41;0.40;99.90
21662;DHT22;10992;48.170;8.596;2023-04-03T06:07:12;0.50;99.90
21662;DHT22;10992;48.170;8.596;2023-04-03T06:09:39;0.50;99.90
21662;DHT22;10992;48.170;8.596;2023-04-03T06:12:07;0.60;99.90
21662;DHT22;10992;48.170;8.596;2023-04-03T06:14:34;0.60;99.90
21662;DHT22;10992;48.170;8.596;2023-04-03T06:17:02;0.60;99.90
21662;DHT22;10992;48.170;8.596;2023-04-03T06:19:30;0.60;99.90
21662;DHT22;10992;48.170;8.596;2023-04-03T06:21:57;0.60;99.90
21662;DHT22;10992;48.170;8.596;2023-04-03T06:24:27;0.60;99.90
21662;DHT22;10992;48.170;8.596;2023-04-03T06:26:53;0.60;99.90
21662;DHT22;10992;48.170;8.596;2023-04-03T06:29:20;0.60;99.90
21662;DHT22;10992;48.170;8.596;2023-04-03T06:31:48;0.60;99.90
21662;DHT22;10992;48.170;8.596;2023-04-03T06:34:16;0.60;99.90
21662;DHT22;10992;48.170;8.596;2023-04-03T06:36:44;0.60;99.90
21662;DHT22;10992;48.170;8.596;2023-04-03T06:39:18;0.60;99.90
21662;DHT22;10992;48.170;8.596;2023-04-03T06:41:46;0.60;99.90
21662;DHT22;10992;48.170;8.596;2023-04-03T06:44:12;0.60;99.90
21662;DHT22;10992;48.170;8.596;2023-04-03T06:46:43;0.70;99.90
21662;DHT22;10992;48.170;8.596;2023-04-03T06:49:10;0.70;99.90
21662;DHT22;10992;48.170;8.596;2023-04-03T06:51:37;0.80;99.90
21662;DHT22;10992;48.170;8.596;2023-04-03T06:54:05;0.70;99.90
21662;DHT22;10992;48.170;8.596;2023-04-03T06:56:32;0.80;99.90
21662;DHT22;10992;48.170;8.596;2023-04-03T06:58:59;0.80;99.90
21662;DHT22;10992;48.170;8.596;2023-04-03T07:01:28;0.90;99.90
21662;DHT22;10992;48.170;8.596;2023-04-03T07:03:56;0.90;99.90
21662;DHT22;10992;48.170;8.596;2023-04-03T07:06:23;0.90;99.90
21662;DHT22;10992;48.170;8.596;2023-04-03T07:08:54;0.90;99.90
21662;DHT22;10992;48.170;8.596;2023-04-03T07:11:24;0.90;99.90
21662;DHT22;10992;48.170;8.596;2023-04-03T07:13:51;1.00;99.90
21662;DHT22;10992;48.170;8.596;2023-04-03T07:16:18;1.00;99.90
21662;DHT22;10992;48.170;8.596;2023-04-03T07:18:45;0.90;99.90
21662;DHT22;10992;48.170;8.596;2023-04-03T07:21:13;1.10;99.90
21662;DHT22;10992;48.170;8.596;2023-04-03T07:23:39;1.10;99.90
21662;DHT22;10992;48.170;8.596;2023-04-03T07:26:06;1.10;99.90
21662;DHT22;10992;48.170;8.596;2023-04-03T07:28:34;1.10;99.90
21662;DHT22;10992;48.170;8.596;2023-04-03T07:31:07;1.10;99.90
21662;DHT22;10992;48.170;8.596;2023-04-03T07:33:36;1.20;99.90
21662;DHT22;10992;48.170;8.596;2023-04-03T07:36:05;1.10;99.90
21662;DHT22;10992;48.170;8.596;2023-04-03T07:38:37;1.20;99.90
21662;DHT22;10992;48.170;8.596;2023-04-03T07:41:04;1.40;99.90
21662;DHT22;10992;48.170;8.596;2023-04-03T07:43:31;1.20;99.90
21662;DHT22;10992;48.170;8.596;2023-04-03T07:45:58;1.70;99.90
21662;DHT22;10992;48.170;8.596;2023-04-03T07:48:28;2.00;99.90
21662;DHT22;10992;48.170;8.596;2023-04-03T07:51:03;2.20;99.90
21662;DHT22;10992;48.170;8.596;2023-04-03T07:53:30;2.50;99.90
21662;DHT22;10992;48.170;8.596;2023-04-03T07:55:59;2.70;99.90
21662;DHT22;10992;48.170;8.596;2023-04-03T07:58:26;2.90;99.90
21662;DHT22;10992;48.170;8.596;2023-04-03T08:00:53;3.00;99.90
21662;DHT22;10992;48.170;8.596;2023-04-03T08:03:20;3.00;99.90
21662;DHT22;10992;48.170;8.596;2023-04-03T08:05:48;3.00;99.90
21662;DHT22;10992;48.170;8.596;2023-04-03T08:08:18;3.10;99.90
21662;DHT22;10992;48.170;8.596;2023-04-03T08:10:52;3.30;99.90
21662;DHT22;10992;48.170;8.596;2023-04-03T08:13:21;3.30;99.90
21662;DHT22;10992;48.170;8.596;2023-04-03T08:15:49;3.30;99.90
21662;DHT22;10992;48.170;8.596;2023-04-03T08:18:16;3.30;99.90
21662;DHT22;10992;48.170;8.596;2023-04-03T08:20:43;3.20;99.90
21662;DHT22;10992;48.170;8.596;2023-04-03T08:23:10;3.30;99.90
21662;DHT22;10992;48.170;8.596;2023-04-03T08:25:39;3.40;99.90
21662;DHT22;10992;48.170;8.596;2023-04-03T08:28:07;3.50;99.90
21662;DHT22;10992;48.170;8.596;2023-04-03T08:30:34;3.60;99.90
21662;DHT22;10992;48.170;8.596;2023-04-03T08:33:01;3.60;99.90
21662;DHT22;10992;48.170;8.596;2023-04-03T08:35:29;3.70;99.90
21662;DHT22;10992;48.170;8.596;2023-04-03T08:37:56;3.70;99.90
21662;DHT22;10992;48.170;8.596;2023-04-03T08:40:23;3.60;99.90
21662;DHT22;10992;48.170;8.596;2023-04-03T08:45:53;3.50;99.90
21662;DHT22;10992;48.170;8.596;2023-04-03T08:48:27;3.40;99.90
21662;DHT22;10992;48.170;8.596;2023-04-03T08:51:02;3.30;99.90
21662;DHT22;10992;48.170;8.596;2023-04-03T08:53:40;3.30;99.90
21662;DHT22;10992;48.170;8.596;2023-04-03T08:56:10;3.20;99.90
21662;DHT22;10992;48.170;8.596;2023-04-03T08:58:45;3.10;99.90
21662;DHT22;10992;48.170;8.596;2023-04-03T09:01:20;2.90;99.90
21662;DHT22;10992;48.170;8.596;2023-04-03T09:03:49;3.10;99.90
21662;DHT22;10992;48.170;8.596;2023-04-03T09:06:26;3.20;99.90
21662;DHT22;10992;48.170;8.596;2023-04-03T09:09:30;3.30;99.90
21662;DHT22;10992;48.170;8.596;2023-04-03T09:23:22;3.40;99.90
21662;DHT22;10992;48.170;8.596;2023-04-03T09:25:54;3.30;99.90
21662;DHT22;10992;48.170;8.596;2023-04-03T09:28:24;3.10;99.90
21662;DHT22;10992;48.170;8.596;2023-04-03T09:30:52;3.00;99.90
21662;DHT22;10992;48.170;8.596;2023-04-03T09:33:20;2.80;99.90
21662;DHT22;10992;48.170;8.596;2023-04-03T09:35:48;3.00;99.90
21662;DHT22;10992;48.170;8.596;2023-04-03T09:38:19;3.10;99.90
21662;DHT22;10992;48.170;8.596;2023-04-03T09:41:34;3.20;99.90
21662;DHT22;10992;48.170;8.596;2023-04-03T09:43:37;3.30;99.90
21662;DHT22;10992;48.170;8.596;2023-04-03T09:46:33;3.30;99.90
21662;DHT22;10992;48.170;8.596;2023-04-03T09:49:03;3.70;99.90
21662;DHT22;10992;48.170;8.596;2023-04-03T09:51:35;3.80;99.90
21662;DHT22;10992;48.170;8.596;2023-04-03T09:54:36;3.70;99.90
21662;DHT22;10992;48.170;8.596;2023-04-03T09:57:10;4.20;99.90
21662;DHT22;10992;48.170;8.596;2023-04-03T09:59:56;4.50;99.90
21662;DHT22;10992;48.170;8.596;2023-04-03T10:04:54;4.60;99.90
21662;DHT22;10992;48.170;8.596;2023-04-03T10:07:37;4.40;99.90
21662;DHT22;10992;48.170;8.596;2023-04-03T10:12:44;4.00;99.90
21662;DHT22;10992;48.170;8.596;2023-04-03T10:15:16;3.90;99.90
21662;DHT22;10992;48.170;8.596;2023-04-03T10:18:09;3.70;99.90
21662;DHT22;10992;48.170;8.596;2023-04-03T10:20:51;3.70;99.90
21662;DHT22;10992;48.170;8.596;2023-04-03T10:23:26;4.10;99.90
21662;DHT22;10992;48.170;8.596;2023-04-03T10:26:29;4.70;99.90
21662;DHT22;10992;48.170;8.596;2023-04-03T10:29:00;5.00;99.90
21662;DHT22;10992;48.170;8.596;2023-04-03T10:31:40;4.70;99.90
21662;DHT22;10992;48.170;8.596;2023-04-03T10:34:27;4.80;99.90
21662;DHT22;10992;48.170;8.596;2023-04-03T10:36:58;4.70;99.90
21662;DHT22;10992;48.170;8.596;2023-04-03T10:39:53;4.30;99.90
21662;DHT22;10992;48.170;8.596;2023-04-03T10:50:48;4.20;99.90
21662;DHT22;10992;48.170;8.596;2023-04-03T10:53:43;4.30;99.90
21662;DHT22;10992;48.170;8.596;2023-04-03T10:56:33;4.30;99.90
21662;DHT22;10992;48.170;8.596;2023-04-03T11:01:45;4.80;99.90
21662;DHT22;10992;48.170;8.596;2023-04-03T11:04:14;5.00;99.90
21662;DHT22;10992;48.170;8.596;2023-04-03T11:09:28;4.50;99.90
21662;DHT22;10992;48.170;8.596;2023-04-03T11:12:06;4.40;99.90
21662;DHT22;10992;48.170;8.596;2023-04-03T11:14:38;4.30;99.90
21662;DHT22;10992;48.170;8.596;2023-04-03T11:17:35;4.30;99.90
21662;DHT22;10992;48.170;8.596;2023-04-03T11:20:17;4.30;99.90
21662;DHT22;10992;48.170;8.596;2023-04-03T11:22:57;4.50;99.90
21662;DHT22;10992;48.170;8.596;2023-04-03T11:25:26;4.70;99.90
21662;DHT22;10992;48.170;8.596;2023-04-03T11:28:05;4.70;99.90
21662;DHT22;10992;48.170;8.596;2023-04-03T11:36:41;4.80;99.90
21662;DHT22;10992;48.170;8.596;2023-04-03T11:39:23;5.00;99.90
21662;DHT22;10992;48.170;8.596;2023-04-03T11:41:52;5.10;99.90
21662;DHT22;10992;48.170;8.596;2023-04-03T11:44:38;4.90;99.90
21662;DHT22;10992;48.170;8.596;2023-04-03T11:47:07;4.90;99.90
21662;DHT22;10992;48.170;8.596;2023-04-03T11:49:58;4.70;99.90
21662;DHT22;10992;48.170;8.596;2023-04-03T12:16:28;4.50;99.90
21662;DHT22;10992;48.170;8.596;2023-04-03T12:24:30;4.40;99.90
21662;DHT22;10992;48.170;8.596;2023-04-03T12:29:29;4.20;99.90
21662;DHT22;10992;48.170;8.596;2023-04-03T12:38:11;4.30;99.90
21662;DHT22;10992;48.170;8.596;2023-04-03T12:41:16;4.30;99.90
21662;DHT22;10992;48.170;8.596;2023-04-03T12:44:05;4.30;99.90
21662;DHT22;10992;48.170;8.596;2023-04-03T12:46:38;4.30;99.90
21662;DHT22;10992;48.170;8.596;2023-04-03T12:51:57;4.30;99.90
21662;DHT22;10992;48.170;8.596;2023-04-03T12:54:30;4.30;99.90
21662;DHT22;10992;48.170;8.596;2023-04-03T12:57:20;4.20;99.90
21662;DHT22;10992;48.170;8.596;2023-04-03T12:59:48;3.90;99.90
21662;DHT22;10992;48.170;8.596;2023-04-03T13:02:27;4.00;99.90
21662;DHT22;10992;48.170;8.596;2023-04-03T13:04:57;4.10;99.90
21662;DHT22;10992;48.170;8.596;2023-04-03T13:07:33;4.30;99.90
21662;DHT22;10992;48.170;8.596;2023-04-03T13:12:28;4.50;99.90
21662;DHT22;10992;48.170;8.596;2023-04-03T13:15:00;4.50;99.90
21662;DHT22;10992;48.170;8.596;2023-04-03T13:17:28;4.60;99.90
21662;DHT22;10992;48.170;8.596;2023-04-03T13:19:55;4.40;99.90
21662;DHT22;10992;48.170;8.596;2023-04-03T13:22:34;4.30;99.90
21662;DHT22;10992;48.170;8.596;2023-04-03T13:25:09;4.40;99.90
21662;DHT22;10992;48.170;8.596;2023-04-03T13:27:38;4.40;99.90
21662;DHT22;10992;48.170;8.596;2023-04-03T13:30:06;4.40;99.90
21662;DHT22;10992;48.170;8.596;2023-04-03T13:32:33;4.50;99.90
21662;DHT22;10992;48.170;8.596;2023-04-03T13:35:01;4.50;99.90
21662;DHT22;10992;48.170;8.596;2023-04-03T13:37:55;4.70;99.90
21662;DHT22;10992;48.170;8.596;2023-04-03T13:40:22;4.80;99.90
21662;DHT22;10992;48.170;8.596;2023-04-03T13:43:06;4.80;99.90
21662;DHT22;10992;48.170;8.596;2023-04-03T13:45:55;4.70;99.90
21662;DHT22;10992;48.170;8.596;2023-04-03T13:48:23;4.60;99.90
21662;DHT22;10992;48.170;8.596;2023-04-03T13:50:58;4.40;99.90
21662;DHT22;10992;48.170;8.596;2023-04-03T13:53:29;4.40;99.90
21662;DHT22;10992;48.170;8.596;2023-04-03T13:58:31;4.50;99.90
21662;DHT22;10992;48.170;8.596;2023-04-03T14:01:18;4.60;99.90
21662;DHT22;10992;48.170;8.596;2023-04-03T14:03:59;4.50;99.90
21662;DHT22;10992;48.170;8.596;2023-04-03T14:06:26;4.70;99.90
21662;DHT22;10992;48.170;8.596;2023-04-03T14:08:53;4.60;99.90
21662;DHT22;10992;48.170;8.596;2023-04-03T14:11:26;4.40;99.90
21662;DHT22;10992;48.170;8.596;2023-04-03T14:13:58;4.20;99.90
21662;DHT22;10992;48.170;8.596;2023-04-03T14:16:29;4.00;99.90
21662;DHT22;10992;48.170;8.596;2023-04-03T14:18:58;3.90;99.90
21662;DHT22;10992;48.170;8.596;2023-04-03T14:21:25;3.90;99.90
21662;DHT22;10992;48.170;8.596;2023-04-03T14:23:52;4.00;99.90
21662;DHT22;10992;48.170;8.596;2023-04-03T14:26:22;4.00;99.90
21662;DHT22;10992;48.170;8.596;2023-04-03T14:28:52;4.10;99.90
21662;DHT22;10992;48.170;8.596;2023-04-03T14:31:20;3.90;99.90
21662;DHT22;10992;48.170;8.596;2023-04-03T14:33:48;3.90;99.90
21662;DHT22;10992;48.170;8.596;2023-04-03T14:36:18;3.90;99.90
21662;DHT22;10992;48.170;8.596;2023-04-03T14:38:47;3.90;99.90
21662;DHT22;10992;48.170;8.596;2023-04-03T14:41:17;3.90;99.90
21662;DHT22;10992;48.170;8.596;2023-04-03T14:43:45;3.80;99.90
21662;DHT22;10992;48.170;8.596;2023-04-03T14:46:18;3.80;99.90
21662;DHT22;10992;48.170;8.596;2023-04-03T14:48:46;3.80;99.90
21662;DHT22;10992;48.170;8.596;2023-04-03T14:51:14;3.90;99.90
21662;DHT22;10992;48.170;8.596;2023-04-03T14:53:44;3.90;99.90
21662;DHT22;10992;48.170;8.596;2023-04-03T14:56:17;3.80;99.90
21662;DHT22;10992;48.170;8.596;2023-04-03T14:58:45;3.80;99.90
21662;DHT22;10992;48.170;8.596;2023-04-03T15:01:16;3.80;99.90
21662;DHT22;10992;48.170;8.596;2023-04-03T15:03:43;4.00;99.90
21662;DHT22;10992;48.170;8.596;2023-04-03T15:06:13;3.90;99.90
21662;DHT22;10992;48.170;8.596;2023-04-03T15:08:41;4.00;99.90
21662;DHT22;10992;48.170;8.596;2023-04-03T15:11:10;4.00;99.90
21662;DHT22;10992;48.170;8.596;2023-04-03T15:13:38;3.90;99.90
21662;DHT22;10992;48.170;8.596;2023-04-03T15:16:15;3.80;99.90
21662;DHT22;10992;48.170;8.596;2023-04-03T15:18:44;3.80;99.90
21662;DHT22;10992;48.170;8.596;2023-04-03T15:21:11;3.70;99.90
21662;DHT22;10992;48.170;8.596;2023-04-03T15:23:38;3.80;99.90
21662;DHT22;10992;48.170;8.596;2023-04-03T15:26:06;3.70;99.90
21662;DHT22;10992;48.170;8.596;2023-04-03T15:28:37;3.60;99.90
21662;DHT22;10992;48.170;8.596;2023-04-03T15:31:06;3.50;99.90
21662;DHT22;10992;48.170;8.596;2023-04-03T15:33:34;3.50;99.90
21662;DHT22;10992;48.170;8.596;2023-04-03T15:36:03;3.50;99.90
21662;DHT22;10992;48.170;8.596;2023-04-03T15:38:37;3.60;99.90
21662;DHT22;10992;48.170;8.596;2023-04-03T15:41:05;3.50;99.90
21662;DHT22;10992;48.170;8.596;2023-04-03T15:43:32;3.40;99.90
21662;DHT22;10992;48.170;8.596;2023-04-03T15:46:01;3.40;99.90
21662;DHT22;10992;48.170;8.596;2023-04-03T15:48:28;3.40;99.90
21662;DHT22;10992;48.170;8.596;2023-04-03T15:50:56;3.40;99.90
21662;DHT22;10992;48.170;8.596;2023-04-03T15:53:25;3.40;99.90
21662;DHT22;10992;48.170;8.596;2023-04-03T15:55:52;3.40;99.90
21662;DHT22;10992;48.170;8.596;2023-04-03T15:58:19;3.40;99.90
21662;DHT22;10992;48.170;8.596;2023-04-03T16:00:46;3.30;99.90
21662;DHT22;10992;48.170;8.596;2023-04-03T16:03:18;3.30;99.90
21662;DHT22;10992;48.170;8.596;2023-04-03T16:05:47;3.30;99.90
21662;DHT22;10992;48.170;8.596;2023-04-03T16:08:14;3.30;99.90
21662;DHT22;10992;48.170;8.596;2023-04-03T16:10:42;3.30;99.90
21662;DHT22;10992;48.170;8.596;2023-04-03T16:13:11;3.30;99.90
21662;DHT22;10992;48.170;8.596;2023-04-03T16:15:39;3.20;99.90
21662;DHT22;10992;48.170;8.596;2023-04-03T16:18:08;3.20;99.90
21662;DHT22;10992;48.170;8.596;2023-04-03T16:20:35;3.20;99.90
21662;DHT22;10992;48.170;8.596;2023-04-03T16:23:02;3.30;99.90
21662;DHT22;10992;48.170;8.596;2023-04-03T16:25:30;3.30;99.90
21662;DHT22;10992;48.170;8.596;2023-04-03T16:27:57;3.40;99.90
21662;DHT22;10992;48.170;8.596;2023-04-03T16:30:24;3.40;99.90
21662;DHT22;10992;48.170;8.596;2023-04-03T16:32:51;3.30;99.90
21662;DHT22;10992;48.170;8.596;2023-04-03T16:35:18;3.30;99.90
21662;DHT22;10992;48.170;8.596;2023-04-03T16:37:45;3.30;99.90
21662;DHT22;10992;48.170;8.596;2023-04-03T16:40:12;3.20;99.90
21662;DHT22;10992;48.170;8.596;2023-04-03T16:42:39;3.20;99.90
21662;DHT22;10992;48.170;8.596;2023-04-03T16:45:06;3.20;99.90
21662;DHT22;10992;48.170;8.596;2023-04-03T16:47:34;3.20;99.90
21662;DHT22;10992;48.170;8.596;2023-04-03T16:50:01;3.20;99.90
21662;DHT22;10992;48.170;8.596;2023-04-03T16:52:29;3.00;99.90
21662;DHT22;10992;48.170;8.596;2023-04-03T16:54:56;3.00;99.90
21662;DHT22;10992;48.170;8.596;2023-04-03T16:57:25;3.00;99.90
21662;DHT22;10992;48.170;8.596;2023-04-03T16:59:53;3.00;99.90
21662;DHT22;10992;48.170;8.596;2023-04-03T17:02:21;2.90;99.90
21662;DHT22;10992;48.170;8.596;2023-04-03T17:04:52;3.00;99.90
21662;DHT22;10992;48.170;8.596;2023-04-03T17:07:20;3.00;99.90
21662;DHT22;10992;48.170;8.596;2023-04-03T17:09:47;3.00;99.90
21662;DHT22;10992;48.170;8.596;2023-04-03T17:12:15;2.90;99.90
21662;DHT22;10992;48.170;8.596;2023-04-03T17:14:42;2.80;99.90
21662;DHT22;10992;48.170;8.596;2023-04-03T17:17:10;2.80;99.90
21662;DHT22;10992;48.170;8.596;2023-04-03T17:19:37;2.80;99.90
21662;DHT22;10992;48.170;8.596;2023-04-03T17:22:04;2.80;99.90
21662;DHT22;10992;48.170;8.596;2023-04-03T17:24:35;2.80;99.90
21662;DHT22;10992;48.170;8.596;2023-04-03T17:27:03;2.90;99.90
21662;DHT22;10992;48.170;8.596;2023-04-03T17:29:30;2.90;99.90
21662;DHT22;10992;48.170;8.596;2023-04-03T17:31:57;2.70;99.90
21662;DHT22;10992;48.170;8.596;2023-04-03T17:34:24;2.70;99.90
21662;DHT22;10992;48.170;8.596;2023-04-03T17:36:51;2.70;99.90
21662;DHT22;10992;48.170;8.596;2023-04-03T17:39:18;2.70;99.90
21662;DHT22;10992;48.170;8.596;2023-04-03T17:41:44;2.70;99.90